Time;durP1;ratioP1;P1;durP2;ratioP2;P2;SDS_P1;SDS_P2;PMS_P1;PMS_P2;Temp;Humidity;BMP_temperature;BMP_pressure;BME280_temperature;BME280_humidity;BME280_pressure;Samples;Min_cycle;Max_cycle;Signal;HPM_P1;HPM_P2
2022/04/26 03:36:06;;;;;;;12.97;7.10;;;8.20;99.90;;;;;;5084393;28;20193;-77
2022/04/26 03:38:34;;;;;;;16.07;7.97;;;8.20;99.90;;;;;;5083562;28;20229;-76
2022/04/26 03:41:01;;;;;;;14.27;7.60;;;8.20;99.90;;;;;;5081135;28;20669;-77
2022/04/26 03:43:29;;;;;;;13.83;7.67;;;8.10;99.90;;;;;;5084234;28;20232;-76
2022/04/26 03:45:57;;;;;;;13.70;7.93;;;8.10;99.90;;;;;;5084832;28;21112;-77
2022/04/26 03:48:25;;;;;;;11.17;7.73;;;8.00;99.90;;;;;;5065953;28;20825;-77
2022/04/26 03:50:52;;;;;;;15.50;8.53;;;8.00;99.90;;;;;;5080207;28;20748;-77
2022/04/26 03:53:28;;;;;;;15.57;9.03;;;7.90;99.90;;;;;;5079720;28;20240;-77
2022/04/26 03:55:54;;;;;;;15.60;8.33;;;7.90;99.90;;;;;;5081874;28;20228;-77
2022/04/26 03:58:21;;;;;;;16.00;9.33;;;7.80;99.90;;;;;;5088190;28;20546;-76
2022/04/26 04:00:48;;;;;;;17.87;8.57;;;7.80;99.90;;;;;;5082867;28;20283;-77
2022/04/26 04:03:15;;;;;;;15.17;9.07;;;7.70;99.90;;;;;;5083522;28;20208;-78
2022/04/26 04:05:42;;;;;;;15.50;9.10;;;7.70;99.90;;;;;;5069120;28;20214;-78
2022/04/26 04:08:09;;;;;;;16.90;8.93;;;7.70;99.90;;;;;;5084136;28;20723;-78
2022/04/26 04:10:36;;;;;;;16.63;9.90;;;7.70;99.90;;;;;;5081758;28;20288;-77
2022/04/26 04:13:03;;;;;;;21.73;10.33;;;7.70;99.90;;;;;;5084922;28;20227;-77
2022/04/26 04:15:31;;;;;;;15.07;9.17;;;7.60;99.90;;;;;;5079348;28;20249;-77
2022/04/26 04:17:58;;;;;;;20.70;10.30;;;7.60;99.90;;;;;;5084688;28;20733;-76
2022/04/26 04:20:26;;;;;;;20.23;11.23;;;7.60;99.90;;;;;;5080153;28;20228;-77
2022/04/26 04:22:55;;;;;;;17.77;11.13;;;7.60;99.90;;;;;;5079619;28;20237;-76
2022/04/26 04:25:24;;;;;;;20.73;11.03;;;7.70;99.90;;;;;;5082812;28;20198;-77
2022/04/26 04:27:51;;;;;;;24.57;11.97;;;7.70;99.90;;;;;;5085003;28;20293;-77
2022/04/26 04:30:18;;;;;;;24.53;12.03;;;7.80;99.90;;;;;;5061385;28;20196;-77
2022/04/26 04:32:45;;;;;;;21.73;13.20;;;7.80;99.90;;;;;;5081193;28;20221;-76
2022/04/26 04:35:12;;;;;;;24.43;12.80;;;7.90;99.90;;;;;;5081362;28;20907;-77
2022/04/26 04:37:43;;;;;;;25.23;15.17;;;7.90;99.90;;;;;;5080315;28;20315;-78
2022/04/26 04:40:15;;;;;;;28.40;13.73;;;7.90;99.90;;;;;;5080142;28;20351;-77
2022/04/26 04:42:42;;;;;;;23.53;13.17;;;8.10;99.90;;;;;;5082419;28;20248;-77
2022/04/26 04:45:09;;;;;;;24.63;13.93;;;8.10;99.90;;;;;;5066021;28;20216;-77
2022/04/26 04:47:36;;;;;;;28.17;15.03;;;8.20;99.90;;;;;;5082314;28;20228;-76
2022/04/26 04:50:03;;;;;;;20.37;12.30;;;8.20;99.90;;;;;;5076858;28;20231;-76
2022/04/26 04:52:31;;;;;;;21.33;13.17;;;8.20;99.90;;;;;;5083934;28;20240;-78
2022/04/26 04:54:58;;;;;;;21.47;12.27;;;8.30;99.90;;;;;;5078584;28;20330;-76
2022/04/26 04:57:25;;;;;;;24.80;13.40;;;8.30;99.90;;;;;;5091028;28;20318;-80
2022/04/26 04:59:52;;;;;;;24.90;12.83;;;8.30;99.90;;;;;;5081835;28;20241;-77
2022/04/26 05:02:19;;;;;;;22.77;12.50;;;8.40;99.90;;;;;;5080179;28;20311;-77
2022/04/26 05:04:47;;;;;;;22.13;12.30;;;8.40;99.90;;;;;;5082445;28;20213;-78
2022/04/26 05:07:14;;;;;;;20.77;12.70;;;8.50;99.90;;;;;;5080389;28;20292;-78
2022/04/26 05:09:41;;;;;;;22.80;12.03;;;8.50;99.90;;;;;;5083485;28;20209;-77
2022/04/26 05:12:09;;;;;;;23.53;11.73;;;8.50;99.90;;;;;;5078867;28;20230;-78
2022/04/26 05:14:36;;;;;;;20.07;11.60;;;8.60;99.90;;;;;;5061345;28;20307;-76
2022/04/26 05:17:03;;;;;;;19.53;11.43;;;8.60;99.90;;;;;;5075770;28;20258;-77
2022/04/26 05:19:30;;;;;;;22.50;11.47;;;8.60;99.90;;;;;;5083518;28;20205;-77
2022/04/26 05:21:57;;;;;;;20.93;11.60;;;8.60;99.90;;;;;;5081147;28;20221;-77
2022/04/26 05:27:10;;;;;;;27.10;11.60;;;8.70;99.90;;;;;;5075194;28;20259;-78
2022/04/26 05:29:37;;;;;;;18.33;11.83;;;8.80;99.90;;;;;;5079928;28;20217;-77
2022/04/26 05:32:04;;;;;;;22.60;11.03;;;8.80;99.90;;;;;;5075883;28;20248;-77
2022/04/26 05:34:31;;;;;;;19.50;10.93;;;8.80;99.90;;;;;;5065813;28;20232;-78
2022/04/26 05:36:58;;;;;;;17.20;10.87;;;8.90;99.90;;;;;;5074146;28;20273;-77
2022/04/26 05:39:25;;;;;;;20.53;11.23;;;8.90;99.90;;;;;;5054857;28;20211;-78
2022/04/26 05:41:51;;;;;;;19.83;11.30;;;9.00;99.90;;;;;;5076695;28;20782;-77
2022/04/26 05:44:18;;;;;;;19.17;10.87;;;9.00;99.90;;;;;;5063056;28;20737;-77
2022/04/26 05:46:45;;;;;;;24.73;11.13;;;9.00;99.90;;;;;;5082431;28;20207;-80
2022/04/26 05:49:12;;;;;;;16.37;10.47;;;9.00;99.90;;;;;;5077085;28;20214;-81
2022/04/26 05:51:39;;;;;;;19.87;10.37;;;9.00;99.90;;;;;;5082364;28;20249;-77
2022/04/26 05:54:06;;;;;;;19.00;10.50;;;9.00;99.90;;;;;;5076116;28;20231;-77
2022/04/26 05:56:33;;;;;;;22.47;11.00;;;9.10;99.90;;;;;;5080401;28;20285;-77
2022/04/26 05:58:59;;;;;;;15.97;10.00;;;9.10;99.90;;;;;;5059493;28;20202;-78
2022/04/26 06:01:26;;;;;;;21.77;10.47;;;9.20;99.90;;;;;;5081495;28;20253;-76
2022/04/26 06:03:54;;;;;;;19.77;10.70;;;9.20;99.90;;;;;;5087023;28;20215;-77
2022/04/26 06:06:21;;;;;;;23.67;10.93;;;9.20;99.90;;;;;;5083618;28;20654;-78
2022/04/26 06:08:48;;;;;;;19.13;11.50;;;9.30;99.90;;;;;;5085493;28;20348;-77
2022/04/26 06:11:15;;;;;;;23.40;11.20;;;9.40;99.90;;;;;;5077193;28;20567;-78
2022/04/26 06:13:42;;;;;;;21.70;10.90;;;9.40;99.90;;;;;;5082595;28;20234;-77
2022/04/26 06:16:09;;;;;;;21.53;10.27;;;9.50;99.90;;;;;;5083367;28;20315;-76
2022/04/26 06:18:36;;;;;;;19.23;9.50;;;9.60;99.90;;;;;;5078471;28;20301;-78
2022/04/26 06:21:03;;;;;;;19.47;9.23;;;9.60;99.90;;;;;;5084167;28;20756;-77
2022/04/26 06:23:30;;;;;;;17.70;9.33;;;9.70;99.90;;;;;;5085070;28;20277;-77
2022/04/26 06:25:59;;;;;;;19.13;9.47;;;9.80;99.90;;;;;;5084242;28;20205;-78
2022/04/26 06:28:26;;;;;;;18.33;9.77;;;9.80;99.90;;;;;;5064674;28;20747;-78
2022/04/26 06:30:55;;;;;;;19.50;9.10;;;9.90;99.90;;;;;;5084293;28;20334;-77
2022/04/26 06:33:22;;;;;;;16.20;8.40;;;10.00;99.90;;;;;;5080548;28;20241;-78
2022/04/26 06:35:51;;;;;;;19.10;9.00;;;10.00;99.90;;;;;;5082102;28;20200;-79
2022/04/26 06:38:18;;;;;;;20.27;8.80;;;10.00;99.90;;;;;;5082472;28;20228;-77
2022/04/26 06:40:49;;;;;;;13.83;8.23;;;10.00;99.90;;;;;;5088314;28;20286;-77
2022/04/26 06:43:15;;;;;;;12.73;8.37;;;10.10;99.90;;;;;;5087048;28;20640;-77
2022/04/26 06:45:44;;;;;;;18.00;8.10;;;10.10;99.90;;;;;;5085133;28;20227;-78
2022/04/26 06:48:11;;;;;;;15.87;8.00;;;10.20;99.90;;;;;;5083333;28;20704;-77
2022/04/26 06:50:38;;;;;;;15.50;7.47;;;10.30;99.90;;;;;;5083443;28;20210;-78
2022/04/26 06:53:06;;;;;;;18.37;7.90;;;10.20;99.90;;;;;;5084749;28;20289;-77
2022/04/26 06:55:33;;;;;;;17.77;7.57;;;10.40;99.90;;;;;;5082639;28;20244;-78
2022/04/26 06:58:00;;;;;;;14.80;7.87;;;10.40;99.90;;;;;;5079474;28;20233;-77
2022/04/26 07:00:28;;;;;;;13.23;6.93;;;10.50;99.90;;;;;;5060242;28;20209;-78
2022/04/26 07:02:55;;;;;;;13.13;7.27;;;10.60;99.90;;;;;;5082925;28;20246;-77
2022/04/26 07:05:23;;;;;;;15.47;7.83;;;10.70;99.90;;;;;;5068118;28;20497;-78
2022/04/26 07:07:52;;;;;;;10.23;7.00;;;10.80;99.90;;;;;;5085394;28;20295;-77
2022/04/26 07:10:19;;;;;;;12.63;6.97;;;10.90;99.90;;;;;;5084107;28;20668;-77
2022/04/26 07:12:46;;;;;;;10.27;6.57;;;11.10;99.90;;;;;;5085776;28;20609;-78
2022/04/26 07:15:12;;;;;;;13.30;6.93;;;11.20;99.90;;;;;;5081475;28;20223;-78
2022/04/26 07:17:40;;;;;;;18.93;7.87;;;11.30;99.90;;;;;;5079853;28;20215;-78
2022/04/26 07:20:08;;;;;;;11.37;6.23;;;11.50;99.90;;;;;;5086248;28;20671;-78
2022/04/26 07:22:36;;;;;;;15.87;6.63;;;11.60;99.90;;;;;;5081309;28;20631;-78
2022/04/26 07:25:05;;;;;;;13.53;6.40;;;11.70;99.90;;;;;;5082187;28;20689;-78
2022/04/26 07:27:32;;;;;;;10.80;6.10;;;11.80;99.90;;;;;;5085938;28;20305;-78
2022/04/26 07:30:00;;;;;;;9.53;6.17;;;11.90;99.90;;;;;;5085810;28;20200;-78
2022/04/26 07:35:12;;;;;;;11.00;6.17;;;12.00;99.90;;;;;;5081096;28;20235;-79
2022/04/26 07:37:40;;;;;;;12.17;6.00;;;12.00;99.90;;;;;;5083845;28;20216;-79
2022/04/26 07:40:08;;;;;;;10.90;5.70;;;12.00;99.90;;;;;;5080734;28;20215;-79
2022/04/26 07:42:35;;;;;;;13.93;6.40;;;12.10;99.90;;;;;;5082253;28;20239;-80
2022/04/26 07:45:02;;;;;;;12.33;5.73;;;12.10;99.90;;;;;;5079153;28;20273;-78
2022/04/26 07:47:30;;;;;;;12.67;5.93;;;12.20;99.90;;;;;;5067300;28;20200;-79
2022/04/26 07:50:01;;;;;;;11.30;5.80;;;12.20;99.90;;;;;;5085223;28;20200;-78
2022/04/26 07:52:28;;;;;;;12.07;5.23;;;12.40;99.90;;;;;;5077182;28;20220;-79
2022/04/26 07:54:55;;;;;;;13.47;5.90;;;12.60;99.90;;;;;;5082896;28;20790;-80
2022/04/26 07:57:22;;;;;;;11.37;6.20;;;12.60;99.90;;;;;;5082799;28;20672;-80
2022/04/26 07:59:49;;;;;;;12.43;5.50;;;13.00;99.90;;;;;;5077769;28;20259;-81
2022/04/26 08:02:16;;;;;;;10.73;5.43;;;13.70;99.90;;;;;;5058021;28;20603;-79
2022/04/26 08:04:45;;;;;;;10.70;5.47;;;13.50;99.90;;;;;;5075251;28;20215;-82
2022/04/26 08:07:12;;;;;;;6.63;4.30;;;14.00;99.90;;;;;;5085795;28;20342;-79
2022/04/26 08:09:39;;;;;;;11.63;4.67;;;14.60;99.90;;;;;;5066249;28;20208;-81
2022/04/26 08:12:07;;;;;;;7.80;4.00;;;15.10;99.90;;;;;;5080919;28;20204;-80
2022/04/26 08:14:34;;;;;;;9.43;4.00;;;15.50;99.90;;;;;;5082473;28;20610;-79
2022/04/26 08:17:01;;;;;;;9.55;4.65;;;15.60;99.90;;;;;;5063879;28;20459;-81
2022/04/26 08:19:28;;;;;;;10.68;5.28;;;15.70;99.90;;;;;;5078809;28;20258;-81
2022/04/26 08:21:55;;;;;;;11.10;5.80;;;15.70;99.90;;;;;;5076403;28;20220;-80
2022/04/26 08:27:25;;;;;;;11.00;5.03;;;15.50;99.90;;;;;;5078128;28;20208;-79
2022/04/26 08:29:53;;;;;;;10.43;5.40;;;15.40;99.90;;;;;;5067915;28;20211;-81
2022/04/26 08:32:22;;;;;;;11.70;5.77;;;15.20;99.90;;;;;;5079630;28;20639;-82
2022/04/26 08:34:49;;;;;;;11.60;5.70;;;15.10;99.90;;;;;;5082041;28;20227;-80
2022/04/26 08:37:16;;;;;;;12.13;5.63;;;15.10;99.90;;;;;;5065372;28;20224;-81
2022/04/26 08:39:43;;;;;;;12.55;5.57;;;15.30;99.90;;;;;;5079532;28;20672;-81
2022/04/26 08:42:10;;;;;;;11.98;5.25;;;15.50;99.90;;;;;;5061608;28;20228;-80
2022/04/26 08:44:38;;;;;;;8.02;4.05;;;15.80;99.90;;;;;;5058304;28;20205;-81
2022/04/26 08:52:49;;;;;;;8.30;3.75;;;16.20;99.90;;;;;;5062681;28;20286;-82
2022/04/26 08:55:16;;;;;;;8.75;3.78;;;16.40;99.90;;;;;;5058778;28;20341;-81
2022/04/26 08:57:44;;;;;;;4.97;3.30;;;16.40;99.90;;;;;;5061147;28;20201;-81
2022/04/26 09:00:11;;;;;;;8.35;3.88;;;16.50;99.90;;;;;;5057553;28;20219;-82
2022/04/26 09:02:39;;;;;;;5.85;4.00;;;16.60;99.90;;;;;;5061987;28;20204;-81
2022/04/26 09:05:14;;;;;;;6.88;4.10;;;16.70;99.90;;;;;;5053452;28;20215;-80
2022/04/26 09:07:45;;;;;;;10.40;4.55;;;16.70;99.90;;;;;;5058595;28;20212;-80
2022/04/26 09:10:18;;;;;;;10.18;4.70;;;16.50;99.90;;;;;;5064560;28;20891;-80
2022/04/26 09:13:09;;;;;;;10.60;5.68;;;16.10;99.90;;;;;;5062818;28;20250;-79
2022/04/26 09:15:56;;;;;;;8.60;4.93;;;15.70;99.90;;;;;;5060356;28;20228;-80
2022/04/26 09:18:30;;;;;;;7.18;5.03;;;15.70;99.90;;;;;;5059797;28;20262;-81
2022/04/26 09:21:08;;;;;;;10.38;4.60;;;15.90;99.90;;;;;;5057158;28;20592;-81
2022/04/26 09:23:38;;;;;;;9.27;4.00;;;16.10;99.90;;;;;;5059050;28;20212;-80
2022/04/26 09:26:10;;;;;;;7.65;4.85;;;16.30;99.90;;;;;;5059691;28;20243;-80
2022/04/26 09:28:45;;;;;;;8.57;4.85;;;16.70;99.90;;;;;;5062250;28;20209;-80
2022/04/26 09:31:30;;;;;;;12.60;5.00;;;16.70;99.90;;;;;;5077617;28;20211;-81
2022/04/26 09:34:11;;;;;;;10.35;5.00;;;16.50;99.90;;;;;;5061519;28;20231;-80
2022/04/26 09:36:50;;;;;;;7.82;4.15;;;16.50;99.90;;;;;;5053894;28;20258;-81
2022/04/26 09:39:19;;;;;;;9.60;4.23;;;16.60;99.90;;;;;;5064087;28;20219;-82
2022/04/26 09:42:06;;;;;;;7.00;4.20;;;16.80;99.90;;;;;;5060972;28;20250;-81
2022/04/26 09:44:35;;;;;;;7.97;3.47;;;16.90;99.90;;;;;;5082126;28;20214;-81
2022/04/26 09:47:02;;;;;;;5.85;3.83;;;16.70;99.90;;;;;;5076980;28;20208;-81
2022/04/26 09:49:36;;;;;;;7.72;4.43;;;16.70;99.90;;;;;;5079325;28;20233;-81
2022/04/26 09:52:13;;;;;;;8.95;4.38;;;16.80;99.90;;;;;;5085803;28;20251;-79
2022/04/26 09:54:39;;;;;;;7.60;4.20;;;16.90;99.90;;;;;;5085883;28;20238;-78
2022/04/26 09:57:10;;;;;;;9.85;4.82;;;17.00;99.90;;;;;;5087699;28;20200;-80
2022/04/26 10:00:01;;;;;;;7.40;4.10;;;16.90;99.90;;;;;;5069557;28;20207;-81
2022/04/26 10:02:31;;;;;;;6.93;4.07;;;16.80;99.90;;;;;;5085894;28;20636;-80
2022/04/26 10:05:03;;;;;;;5.55;3.72;;;16.40;99.90;;;;;;5070102;28;20205;-81
2022/04/26 10:07:40;;;;;;;8.53;4.27;;;16.20;99.90;;;;;;5080974;28;20229;-82
2022/04/26 10:10:09;;;;;;;6.93;4.20;;;15.80;99.90;;;;;;5076976;28;20207;-79
2022/04/26 10:12:41;;;;;;;9.07;4.10;;;15.60;99.90;;;;;;5086437;28;20203;-82
2022/04/26 10:15:09;;;;;;;7.97;4.10;;;15.50;99.90;;;;;;5081772;28;20227;-80
2022/04/26 10:17:47;;;;;;;7.47;4.00;;;15.70;99.90;;;;;;5085174;28;20290;-81
2022/04/26 10:20:40;;;;;;;6.57;3.80;;;15.90;99.90;;;;;;5076466;28;20211;-80
2022/04/26 10:23:07;;;;;;;6.87;4.43;;;16.10;99.90;;;;;;5079131;28;20737;-81
2022/04/26 10:25:34;;;;;;;6.47;4.27;;;16.30;99.90;;;;;;5080123;28;20606;-81
2022/04/26 10:28:16;;;;;;;5.95;4.45;;;16.40;99.90;;;;;;5061369;28;20212;-83
2022/04/26 10:30:51;;;;;;;7.90;4.33;;;16.60;99.90;;;;;;5062839;28;20631;-79
2022/04/26 10:33:38;;;;;;;6.50;4.20;;;16.70;99.90;;;;;;5081479;28;20200;-82
2022/04/26 10:36:38;;;;;;;7.00;4.50;;;16.90;99.90;;;;;;5083594;28;20278;-79
2022/04/26 10:39:07;;;;;;;6.35;4.38;;;17.00;99.90;;;;;;5060127;28;20265;-79
2022/04/26 10:41:37;;;;;;;6.50;4.47;;;16.90;99.90;;;;;;5082231;28;20247;-79
2022/04/26 10:44:13;;;;;;;5.65;4.88;;;16.90;99.90;;;;;;5080081;28;20227;-79
2022/04/26 10:46:42;;;;;;;5.45;4.50;;;16.90;99.90;;;;;;5082552;28;20203;-78
2022/04/26 10:49:24;;;;;;;7.63;4.20;;;16.90;99.90;;;;;;5078805;28;20652;-79
2022/04/26 10:51:55;;;;;;;7.68;4.50;;;16.70;99.90;;;;;;5082242;28;20634;-79
2022/04/26 10:54:55;;;;;;;10.05;4.22;;;16.70;99.90;;;;;;5082318;28;20548;-79
2022/04/26 10:57:27;;;;;;;5.70;4.13;;;16.90;99.90;;;;;;5082279;28;20210;-79
2022/04/26 11:00:01;;;;;;;9.60;4.38;;;17.00;99.90;;;;;;5079071;28;20722;-79
2022/04/26 11:02:35;;;;;;;5.93;3.60;;;16.80;99.90;;;;;;5082678;28;20199;-79
2022/04/26 11:05:08;;;;;;;7.22;4.20;;;16.70;99.90;;;;;;5081685;28;20346;-80
2022/04/26 11:07:45;;;;;;;4.85;3.67;;;16.70;99.90;;;;;;5080898;28;20752;-80
2022/04/26 11:10:15;;;;;;;6.00;4.37;;;16.50;99.90;;;;;;5078405;28;20208;-78
2022/04/26 11:12:43;;;;;;;6.47;4.40;;;16.50;99.90;;;;;;5080789;28;20203;-80
2022/04/26 11:15:13;;;;;;;5.53;4.30;;;16.60;99.90;;;;;;5068847;28;20726;-79
2022/04/26 11:17:42;;;;;;;7.05;4.13;;;16.80;99.90;;;;;;5083683;28;20569;-79
2022/04/26 11:20:17;;;;;;;6.40;4.25;;;16.80;99.90;;;;;;5084620;28;20216;-79
2022/04/26 11:22:48;;;;;;;8.77;4.10;;;16.70;99.50;;;;;;5081242;28;20243;-79
2022/04/26 11:28:09;;;;;;;8.25;4.55;;;16.70;99.90;;;;;;5079954;28;20208;-80
2022/04/26 11:30:47;;;;;;;6.32;3.45;;;16.80;99.80;;;;;;5075231;28;20205;-79
2022/04/26 11:33:22;;;;;;;6.00;3.87;;;16.90;98.20;;;;;;5072381;28;20612;-80
2022/04/26 11:36:00;;;;;;;4.90;3.60;;;16.70;98.50;;;;;;5084315;28;20309;-80
2022/04/26 11:38:28;;;;;;;5.40;3.85;;;16.60;98.60;;;;;;5078595;28;20687;-79
2022/04/26 11:41:06;;;;;;;6.03;4.30;;;16.60;98.80;;;;;;5084384;28;20269;-79
2022/04/26 11:43:35;;;;;;;4.97;3.80;;;16.70;98.60;;;;;;5077733;28;20599;-78
2022/04/26 11:46:03;;;;;;;4.77;3.20;;;16.80;99.10;;;;;;5066697;28;20218;-79
2022/04/26 11:48:34;;;;;;;4.85;3.50;;;16.80;98.80;;;;;;5066937;28;20227;-79
2022/04/26 11:51:02;;;;;;;3.90;3.20;;;16.90;97.50;;;;;;5078439;28;20200;-79
2022/04/26 11:53:37;;;;;;;6.53;3.30;;;16.90;97.20;;;;;;5075423;28;20576;-78
2022/04/26 11:56:06;;;;;;;5.17;2.90;;;16.90;96.70;;;;;;5079594;28;20219;-79
2022/04/26 11:58:34;;;;;;;5.40;3.23;;;17.00;96.70;;;;;;5084105;28;20300;-78
2022/04/26 12:01:15;;;;;;;7.72;3.28;;;17.30;97.20;;;;;;5083129;28;20222;-80
2022/04/26 12:03:51;;;;;;;4.90;2.72;;;17.80;96.80;;;;;;5082562;28;20283;-80
2022/04/26 12:06:20;;;;;;;4.80;3.10;;;17.90;95.20;;;;;;5081630;28;20196;-79
2022/04/26 12:08:49;;;;;;;5.65;2.75;;;17.90;95.40;;;;;;5081857;28;20200;-81
2022/04/26 12:11:18;;;;;;;5.43;3.55;;;17.90;95.20;;;;;;5074035;28;20215;-79
2022/04/26 12:13:46;;;;;;;6.80;3.22;;;17.80;95.10;;;;;;5062083;28;20214;-80
2022/04/26 12:16:18;;;;;;;10.38;3.08;;;17.70;95.00;;;;;;5076283;28;20285;-78
2022/04/26 12:19:00;;;;;;;6.63;3.28;;;17.70;95.20;;;;;;5082974;28;20197;-79
2022/04/26 12:21:28;;;;;;;3.63;3.28;;;17.60;94.70;;;;;;5076790;28;20207;-81
2022/04/26 12:24:12;;;;;;;4.45;3.33;;;17.50;94.40;;;;;;5078286;28;20206;-81
2022/04/26 12:26:53;;;;;;;6.90;3.15;;;17.50;94.60;;;;;;5081338;28;20211;-80
2022/04/26 12:29:27;;;;;;;9.50;3.78;;;17.60;94.60;;;;;;5080153;28;20261;-80
2022/04/26 12:31:54;;;;;;;5.68;3.55;;;17.80;94.30;;;;;;5076326;28;20199;-82
2022/04/26 12:34:32;;;;;;;5.72;3.00;;;18.00;93.80;;;;;;5066105;28;20277;-82
2022/04/26 12:37:02;;;;;;;3.13;2.40;;;18.10;93.20;;;;;;5079369;28;20683;-80
2022/04/26 12:39:41;;;;;;;5.82;3.17;;;18.10;92.50;;;;;;5084302;28;20196;-80
2022/04/26 12:42:10;;;;;;;5.45;2.90;;;18.10;92.60;;;;;;5083022;28;20239;-81
2022/04/26 12:44:51;;;;;;;4.50;3.03;;;18.20;93.10;;;;;;5080994;28;20204;-82
2022/04/26 12:50:28;;;;;;;5.45;3.00;;;18.60;92.90;;;;;;5082301;28;20253;-80
2022/04/26 12:52:57;;;;;;;4.82;3.63;;;18.60;91.60;;;;;;5073761;28;20635;-81
2022/04/26 12:55:31;;;;;;;4.65;3.08;;;18.50;91.80;;;;;;5070097;28;20231;-80
2022/04/26 12:58:04;;;;;;;9.48;2.88;;;18.50;91.20;;;;;;5077978;28;20201;-82
2022/04/26 13:00:32;;;;;;;5.03;2.75;;;18.50;91.10;;;;;;5083545;28;20239;-81
2022/04/26 13:03:02;;;;;;;6.90;2.75;;;18.50;90.70;;;;;;5083432;28;20204;-83
2022/04/26 13:05:44;;;;;;;7.82;3.00;;;18.30;90.60;;;;;;5066879;28;20282;-82
2022/04/26 13:08:14;;;;;;;4.88;2.88;;;18.20;90.50;;;;;;5068398;28;20208;-81
2022/04/26 13:10:42;;;;;;;4.13;2.60;;;18.20;91.00;;;;;;5079223;28;20282;-81
2022/04/26 13:13:10;;;;;;;4.10;2.80;;;18.30;90.80;;;;;;5083359;28;20215;-80
2022/04/26 13:15:38;;;;;;;3.47;2.85;;;18.40;91.20;;;;;;5082126;28;20234;-82
2022/04/26 13:18:05;;;;;;;3.33;2.40;;;18.40;91.10;;;;;;5078907;28;20247;-81
2022/04/26 13:20:33;;;;;;;3.63;2.83;;;18.30;90.80;;;;;;5084059;28;20353;-81
2022/04/26 13:23:00;;;;;;;4.57;2.88;;;18.20;90.70;;;;;;5088476;28;20586;-82
2022/04/26 13:25:27;;;;;;;7.43;2.72;;;18.20;90.70;;;;;;5085776;28;20206;-81
2022/04/26 13:27:55;;;;;;;6.43;2.70;;;18.10;90.00;;;;;;5067807;28;20203;-81
2022/04/26 13:30:24;;;;;;;5.05;2.80;;;18.10;90.30;;;;;;5081277;28;20204;-81
2022/04/26 13:32:52;;;;;;;4.82;2.75;;;18.00;90.30;;;;;;5070741;28;20820;-81
2022/04/26 13:35:19;;;;;;;3.65;2.80;;;18.00;90.20;;;;;;5087342;28;20235;-80
2022/04/26 13:37:46;;;;;;;4.93;2.88;;;17.90;90.00;;;;;;5082982;28;20243;-81
2022/04/26 13:40:14;;;;;;;4.38;3.35;;;17.80;90.00;;;;;;5069077;28;20624;-81
2022/04/26 13:42:40;;;;;;;3.25;2.50;;;17.80;89.40;;;;;;5070202;28;20224;-84
2022/04/26 13:45:08;;;;;;;4.65;2.78;;;17.70;89.50;;;;;;5087402;28;20637;-82
2022/04/26 13:47:36;;;;;;;4.60;2.50;;;17.70;89.00;;;;;;5084528;28;20554;-81
2022/04/26 13:50:06;;;;;;;4.20;3.45;;;17.70;88.60;;;;;;5082530;28;20636;-82
2022/04/26 13:52:33;;;;;;;5.28;3.25;;;17.80;88.10;;;;;;5085129;28;20691;-80
2022/04/26 13:55:00;;;;;;;3.58;2.70;;;17.70;88.60;;;;;;5070735;28;20238;-81
2022/04/26 13:57:27;;;;;;;4.57;2.80;;;17.70;88.70;;;;;;5068055;28;20276;-81
2022/04/26 13:59:54;;;;;;;5.85;3.05;;;17.80;88.60;;;;;;5078777;28;20197;-80
2022/04/26 14:02:21;;;;;;;3.60;2.92;;;17.70;88.80;;;;;;5082519;28;20264;-81
2022/04/26 14:04:48;;;;;;;5.57;3.13;;;17.60;89.10;;;;;;5069110;28;20196;-80
2022/04/26 14:07:15;;;;;;;5.90;2.90;;;17.70;88.80;;;;;;5086100;28;20285;-83
2022/04/26 14:09:42;;;;;;;6.00;3.20;;;17.70;88.60;;;;;;5084220;28;20239;-80
2022/04/26 14:12:09;;;;;;;4.83;3.10;;;17.60;89.10;;;;;;5080881;28;20208;-81
2022/04/26 14:22:55;;;;;;;5.60;3.00;;;17.60;87.30;;;;;;5078481;28;20647;-82
2022/04/26 14:25:23;;;;;;;7.18;2.97;;;17.70;87.40;;;;;;5086056;28;20204;-79
2022/04/26 14:27:51;;;;;;;4.00;2.53;;;17.70;87.30;;;;;;5067656;28;20223;-80
2022/04/26 14:30:18;;;;;;;3.85;3.10;;;17.80;87.50;;;;;;5082945;28;20245;-80
2022/04/26 14:33:05;;;;;;;4.43;3.33;;;17.80;88.80;;;;;;5083651;28;20195;-82
2022/04/26 14:35:32;;;;;;;4.35;2.65;;;17.90;89.20;;;;;;5083532;28;20639;-80
2022/04/26 14:38:00;;;;;;;4.28;3.10;;;17.90;88.70;;;;;;5083075;28;20529;-80
2022/04/26 14:40:28;;;;;;;4.72;3.30;;;17.90;88.30;;;;;;5078221;28;20231;-80
2022/04/26 14:43:00;;;;;;;5.75;3.13;;;17.80;88.10;;;;;;5058898;28;20829;-79
2022/04/26 14:45:32;;;;;;;5.32;3.20;;;17.60;88.00;;;;;;5063906;28;20216;-80
2022/04/26 14:48:00;;;;;;;3.50;3.20;;;17.50;87.80;;;;;;5064297;28;20277;-79
2022/04/26 14:50:30;;;;;;;5.57;3.10;;;17.50;88.20;;;;;;5066225;28;20746;-80
2022/04/26 14:52:56;;;;;;;10.45;3.63;;;17.50;88.20;;;;;;5062101;28;20230;-80
2022/04/26 14:55:24;;;;;;;4.40;3.00;;;17.50;88.40;;;;;;5058238;28;20730;-82
2022/04/26 14:57:50;;;;;;;3.73;3.30;;;17.50;88.40;;;;;;5063093;28;20214;-80
2022/04/26 15:00:17;;;;;;;7.38;3.05;;;17.40;88.50;;;;;;5059552;28;20219;-79
2022/04/26 15:02:44;;;;;;;3.78;3.05;;;17.20;88.40;;;;;;5061457;28;20197;-80
2022/04/26 15:05:13;;;;;;;5.10;3.30;;;17.20;88.90;;;;;;5064943;28;21133;-81
2022/04/26 15:10:27;;;;;;;5.28;3.38;;;17.00;89.80;;;;;;5062434;28;20308;-81
2022/04/26 15:18:25;;;;;;;3.97;3.33;;;17.30;89.40;;;;;;5060825;28;20680;-80
2022/04/26 15:20:52;;;;;;;5.00;3.08;;;17.10;88.90;;;;;;5057250;28;20659;-81
2022/04/26 15:23:20;;;;;;;4.93;3.00;;;16.90;89.50;;;;;;5060663;28;20224;-80
2022/04/26 15:25:52;;;;;;;4.85;3.15;;;16.90;90.10;;;;;;5061350;28;20201;-79
2022/04/26 15:28:20;;;;;;;5.13;3.10;;;17.00;90.20;;;;;;5063066;28;20236;-81
2022/04/26 15:30:49;;;;;;;4.38;3.05;;;17.20;90.30;;;;;;5064445;28;20216;-81
2022/04/26 15:33:17;;;;;;;7.22;3.47;;;17.30;90.10;;;;;;5060160;28;20204;-80
2022/04/26 15:35:44;;;;;;;8.07;3.45;;;17.30;90.30;;;;;;5061539;28;20235;-81
2022/04/26 15:38:12;;;;;;;3.97;3.30;;;17.10;90.50;;;;;;5066675;28;20632;-80
2022/04/26 15:40:41;;;;;;;6.63;3.42;;;17.00;90.90;;;;;;5062152;28;20653;-81
2022/04/26 15:43:08;;;;;;;3.93;3.30;;;16.80;91.30;;;;;;5071894;28;20926;-80
2022/04/26 15:45:36;;;;;;;3.95;3.33;;;16.60;91.70;;;;;;5066928;28;20682;-80
2022/04/26 15:48:04;;;;;;;5.93;3.57;;;16.50;92.10;;;;;;5080426;28;20567;-80
2022/04/26 15:50:32;;;;;;;4.00;3.22;;;16.40;91.90;;;;;;5066339;28;20220;-81
2022/04/26 15:52:59;;;;;;;4.80;3.03;;;16.40;92.10;;;;;;5070681;28;20222;-80
2022/04/26 15:55:33;;;;;;;4.77;3.50;;;16.40;91.80;;;;;;5081588;28;20204;-82
2022/04/26 15:58:00;;;;;;;6.37;3.40;;;16.50;91.90;;;;;;5080177;28;20763;-79
2022/04/26 16:00:27;;;;;;;8.43;3.47;;;16.40;92.00;;;;;;5078356;28;20306;-81
2022/04/26 16:02:55;;;;;;;5.00;3.00;;;16.20;92.30;;;;;;5081168;28;20432;-80
2022/04/26 16:05:22;;;;;;;6.30;3.50;;;16.10;92.50;;;;;;5065478;28;20592;-82
2022/04/26 16:07:49;;;;;;;4.67;3.40;;;16.00;92.90;;;;;;5082521;28;20243;-80
2022/04/26 16:21:18;;;;;;;4.07;3.33;;;16.00;93.40;;;;;;5080026;28;20246;-80
2022/04/26 16:23:45;;;;;;;4.40;3.20;;;16.00;93.30;;;;;;5081557;28;20200;-80
2022/04/26 16:26:13;;;;;;;6.03;3.07;;;16.00;93.10;;;;;;5073888;28;20278;-83
2022/04/26 16:28:40;;;;;;;4.23;3.20;;;16.10;93.00;;;;;;5060945;28;20207;-81
2022/04/26 16:31:07;;;;;;;5.30;2.93;;;15.90;93.20;;;;;;5083433;28;20289;-80
2022/04/26 16:33:34;;;;;;;4.47;3.27;;;15.80;93.30;;;;;;5077818;28;20658;-80
2022/04/26 16:36:00;;;;;;;3.93;3.10;;;15.70;93.30;;;;;;5080686;28;20223;-79
2022/04/26 16:38:27;;;;;;;4.53;3.27;;;15.60;93.40;;;;;;5066364;28;20207;-83
2022/04/26 16:40:56;;;;;;;5.53;3.30;;;15.50;93.50;;;;;;5063660;28;20903;-83
2022/04/26 16:43:24;;;;;;;6.60;3.40;;;15.60;93.60;;;;;;5081262;28;20223;-83
2022/04/26 16:45:51;;;;;;;5.33;3.40;;;15.50;93.60;;;;;;5078688;28;20207;-81
2022/04/26 16:48:23;;;;;;;3.70;3.30;;;15.60;93.60;;;;;;5066020;28;20218;-83
2022/04/26 16:50:50;;;;;;;6.40;3.23;;;15.60;93.70;;;;;;5080900;28;20207;-81
2022/04/26 16:53:18;;;;;;;3.20;2.70;;;15.70;93.70;;;;;;5079470;28;20216;-81
2022/04/26 16:55:46;;;;;;;7.00;4.43;;;15.50;93.40;;;;;;5062256;28;20258;-80
2022/04/26 16:58:13;;;;;;;4.47;3.33;;;15.40;93.30;;;;;;5079830;28;20218;-83
2022/04/26 17:00:44;;;;;;;4.27;3.33;;;15.40;93.40;;;;;;5063189;28;20285;-82
2022/04/26 17:03:14;;;;;;;7.07;3.43;;;15.30;93.20;;;;;;5056835;28;20216;-80
2022/04/26 17:05:47;;;;;;;5.43;3.17;;;15.00;93.30;;;;;;5081183;28;20406;-80
2022/04/26 17:08:16;;;;;;;4.43;2.87;;;15.20;93.30;;;;;;5082296;28;20231;-81
2022/04/26 17:10:44;;;;;;;3.93;3.00;;;15.10;93.10;;;;;;5061867;28;20217;-80
2022/04/26 17:13:11;;;;;;;4.27;2.77;;;14.90;93.00;;;;;;5079195;28;20694;-81
2022/04/26 17:15:39;;;;;;;5.40;3.40;;;14.90;93.20;;;;;;5076605;28;20269;-81
2022/04/26 17:18:06;;;;;;;4.87;3.03;;;14.80;93.10;;;;;;5062109;28;20731;-82